createdAt,value
2023-07-04T00:00:27.440Z,25.08
2023-07-04T00:02:30.481Z,25.09
2023-07-04T00:04:34.734Z,25.10
2023-07-04T00:06:37.989Z,25.10
2023-07-04T00:08:41.081Z,25.10
2023-07-04T00:10:44.712Z,25.10
2023-07-04T00:12:47.763Z,25.10
2023-07-04T00:14:50.640Z,25.11
2023-07-04T00:16:53.499Z,25.08
2023-07-04T00:18:56.442Z,25.08
2023-07-04T00:21:05.104Z,25.05
2023-07-04T00:23:08.023Z,25.03
2023-07-04T00:25:11.389Z,25.00
2023-07-04T00:27:14.316Z,25.00
2023-07-04T00:29:18.172Z,25.03
2023-07-04T00:31:24.810Z,25.02
2023-07-04T00:33:29.533Z,25.00
2023-07-04T00:35:32.357Z,24.98
2023-07-04T00:37:38.013Z,24.98
2023-07-04T00:39:41.342Z,24.95
2023-07-04T00:41:44.310Z,24.91
2023-07-04T00:44:00.804Z,24.93
2023-07-04T00:46:04.553Z,24.92
2023-07-04T00:48:07.702Z,24.92
2023-07-04T00:50:11.074Z,24.94
2023-07-04T00:52:18.157Z,24.95
2023-07-04T00:54:25.930Z,24.93
2023-07-04T00:56:31.877Z,24.90
2023-07-04T00:58:35.728Z,24.90
2023-07-04T01:00:39.844Z,24.91
2023-07-04T01:02:47.105Z,24.93
2023-07-04T01:04:52.130Z,24.92
2023-07-04T01:07:01.607Z,24.92
2023-07-04T01:09:09.161Z,24.94
2023-07-04T01:11:18.640Z,24.96
2023-07-04T01:13:35.114Z,24.97
2023-07-04T01:15:38.178Z,24.98
2023-07-04T01:17:43.112Z,24.95
2023-07-04T01:19:46.700Z,24.95
2023-07-04T01:21:54.187Z,24.95
2023-07-04T01:24:07.782Z,24.96
2023-07-04T01:26:26.811Z,24.94
2023-07-04T01:28:31.123Z,24.95
2023-07-04T01:30:39.823Z,24.96
2023-07-04T01:32:43.413Z,24.96
2023-07-04T01:34:47.155Z,24.97
2023-07-04T01:36:50.552Z,24.96
2023-07-04T01:38:54.028Z,24.96
2023-07-04T01:40:56.994Z,24.96
2023-07-04T01:43:01.192Z,24.96
2023-07-04T01:45:06.817Z,24.96
2023-07-04T01:47:09.836Z,24.94
2023-07-04T01:49:12.744Z,24.93
2023-07-04T01:51:15.800Z,24.94
2023-07-04T01:53:18.849Z,24.94
2023-07-04T01:55:21.924Z,24.93
2023-07-04T01:57:24.927Z,24.92
2023-07-04T01:59:29.198Z,24.93
2023-07-04T02:01:32.394Z,24.92
2023-07-04T02:03:36.000Z,24.92
2023-07-04T02:05:39.192Z,24.91
2023-07-04T02:07:42.549Z,24.90
2023-07-04T02:09:45.742Z,24.89
2023-07-04T02:11:48.640Z,24.88
2023-07-04T02:13:51.666Z,24.86
2023-07-04T02:15:56.763Z,24.86
2023-07-04T02:17:59.934Z,24.87
2023-07-04T02:20:02.955Z,24.86
2023-07-04T02:22:05.945Z,24.85
2023-07-04T02:24:08.946Z,24.84
2023-07-04T02:26:11.835Z,24.84
2023-07-04T02:28:14.620Z,24.81
2023-07-04T02:30:17.908Z,24.81
2023-07-04T02:32:22.119Z,24.81
2023-07-04T02:34:24.937Z,24.83
2023-07-04T02:36:27.855Z,24.82
2023-07-04T02:38:30.840Z,24.79
2023-07-04T02:40:33.646Z,24.80
2023-07-04T02:42:36.555Z,24.79
2023-07-04T02:44:39.329Z,24.80
2023-07-04T02:46:42.188Z,24.80
2023-07-04T02:48:46.692Z,24.78
2023-07-04T02:50:49.810Z,24.78
2023-07-04T02:52:52.845Z,24.75
2023-07-04T02:54:55.652Z,24.74
2023-07-04T02:56:58.423Z,24.75
2023-07-04T02:59:01.312Z,24.75
2023-07-04T03:01:06.275Z,24.73
2023-07-04T03:03:09.747Z,24.74
2023-07-04T03:05:14.076Z,24.75
2023-07-04T03:07:17.075Z,24.73
2023-07-04T03:09:19.901Z,24.73
2023-07-04T03:11:22.657Z,24.73
2023-07-04T03:13:25.646Z,24.73
2023-07-04T03:15:28.878Z,24.72
2023-07-04T03:17:31.672Z,24.72
2023-07-04T03:19:34.594Z,24.72
2023-07-04T03:21:38.765Z,24.72
2023-07-04T03:23:41.582Z,24.72
2023-07-04T03:25:44.500Z,24.71
2023-07-04T03:27:47.366Z,24.71
2023-07-04T03:29:50.357Z,24.69
2023-07-04T03:31:53.362Z,24.67
2023-07-04T03:33:56.115Z,24.66
2023-07-04T03:36:00.775Z,24.65
2023-07-04T03:38:05.383Z,24.64
2023-07-04T03:40:11.284Z,24.63
2023-07-04T03:42:14.204Z,24.61
2023-07-04T03:44:17.036Z,24.61
2023-07-04T03:46:19.874Z,24.60
2023-07-04T03:48:23.151Z,24.59
2023-07-04T03:50:26.224Z,24.59
2023-07-04T03:52:29.075Z,24.59
2023-07-04T03:54:33.325Z,24.58
2023-07-04T03:56:36.212Z,24.57
2023-07-04T03:58:39.027Z,24.57
2023-07-04T04:00:42.108Z,24.57
2023-07-04T04:02:45.332Z,24.54
2023-07-04T04:04:48.721Z,24.54
2023-07-04T04:06:53.030Z,24.52
2023-07-04T04:08:55.834Z,24.52
2023-07-04T04:11:00.250Z,24.52
2023-07-04T04:13:03.118Z,24.50
2023-07-04T04:15:06.881Z,24.50
2023-07-04T04:17:09.930Z,24.50
2023-07-04T04:19:12.752Z,24.49
2023-07-04T04:21:15.432Z,24.47
2023-07-04T04:23:18.507Z,24.46
2023-07-04T04:25:21.365Z,24.45
2023-07-04T04:27:28.042Z,24.43
2023-07-04T04:29:31.349Z,24.43
2023-07-04T04:31:34.949Z,24.41
2023-07-04T04:33:37.913Z,24.41
2023-07-04T04:35:41.671Z,24.42
2023-07-04T04:37:44.533Z,24.41
2023-07-04T04:39:47.769Z,24.43
2023-07-04T04:41:53.788Z,24.44
2023-07-04T04:43:59.768Z,24.44
2023-07-04T04:46:03.128Z,24.44
2023-07-04T04:48:07.260Z,24.42
2023-07-04T04:50:10.761Z,24.43
2023-07-04T04:52:14.315Z,24.44
2023-07-04T04:54:18.425Z,24.45
2023-07-04T04:56:21.412Z,24.44
2023-07-04T04:58:24.339Z,24.43
2023-07-04T05:00:28.473Z,24.44
2023-07-04T05:02:32.055Z,24.44
2023-07-04T05:04:35.220Z,24.43
2023-07-04T05:06:38.569Z,24.43
2023-07-04T05:08:41.425Z,24.45
2023-07-04T05:10:44.165Z,24.44
2023-07-04T05:12:46.947Z,24.42
2023-07-04T05:14:49.855Z,24.44
2023-07-04T05:16:54.167Z,24.44
2023-07-04T05:18:57.167Z,24.44
2023-07-04T05:21:04.601Z,24.43
2023-07-04T05:23:08.223Z,24.45
2023-07-04T05:25:11.833Z,24.44
2023-07-04T05:27:17.119Z,24.46
2023-07-04T05:29:20.045Z,24.50
2023-07-04T05:31:25.692Z,24.55
2023-07-04T05:33:30.819Z,24.67
2023-07-04T05:35:33.599Z,24.79
2023-07-04T05:37:37.525Z,24.89
2023-07-04T05:39:40.432Z,25.01
2023-07-04T05:41:43.191Z,25.11
2023-07-04T05:43:46.233Z,25.21
2023-07-04T05:45:49.746Z,25.32
2023-07-04T05:47:52.672Z,25.41
2023-07-04T05:49:56.930Z,25.49
2023-07-04T05:51:59.823Z,25.59
2023-07-04T05:54:02.604Z,25.68
2023-07-04T05:56:10.103Z,25.73
2023-07-04T05:58:12.982Z,25.81
2023-07-04T06:00:16.772Z,25.88
2023-07-04T06:02:19.557Z,25.92
2023-07-04T06:04:22.490Z,25.98
2023-07-04T06:06:31.546Z,26.02
2023-07-04T06:08:35.380Z,26.01
2023-07-04T06:10:38.642Z,26.00
2023-07-04T06:12:43.163Z,25.94
2023-07-04T06:14:46.013Z,25.89
2023-07-04T06:16:48.949Z,25.91
2023-07-04T06:18:52.440Z,25.91
2023-07-04T06:20:55.327Z,25.93
2023-07-04T06:22:59.669Z,25.87
2023-07-04T06:25:02.803Z,25.80
2023-07-04T06:27:08.647Z,25.77
2023-07-04T06:29:11.543Z,25.73
2023-07-04T06:31:16.364Z,25.68
2023-07-04T06:33:19.676Z,25.65
2023-07-04T06:35:22.500Z,25.66
2023-07-04T06:37:25.545Z,25.70
2023-07-04T06:39:29.937Z,25.70
2023-07-04T06:41:33.085Z,25.68
2023-07-04T06:43:36.537Z,25.59
2023-07-04T06:45:39.404Z,25.52
2023-07-04T06:47:42.413Z,25.50
2023-07-04T06:49:45.296Z,25.47
2023-07-04T06:51:48.942Z,25.48
2023-07-04T06:53:52.070Z,25.48
2023-07-04T06:56:07.122Z,25.48
2023-07-04T06:58:10.386Z,25.47
2023-07-04T07:00:14.754Z,25.48
2023-07-04T07:02:18.311Z,25.44
2023-07-04T07:04:21.517Z,25.45
2023-07-04T07:06:24.724Z,25.46
2023-07-04T07:08:27.606Z,25.44
2023-07-04T07:10:32.740Z,25.48
2023-07-04T07:12:38.250Z,25.48
2023-07-04T07:14:41.471Z,25.49
2023-07-04T07:16:44.641Z,25.50
2023-07-04T07:18:48.893Z,25.49
2023-07-04T07:20:59.383Z,25.48
2023-07-04T07:23:02.644Z,25.48
2023-07-04T07:25:07.029Z,25.48
2023-07-04T07:27:10.215Z,25.45
2023-07-04T07:29:14.482Z,25.42
2023-07-04T07:31:19.917Z,25.44
2023-07-04T07:33:23.025Z,25.45
2023-07-04T07:35:26.102Z,25.45
2023-07-04T07:37:28.943Z,25.44
2023-07-04T07:39:31.729Z,25.43
2023-07-04T07:41:38.534Z,25.41
2023-07-04T07:43:43.272Z,25.41
2023-07-04T07:45:48.569Z,25.43
2023-07-04T07:47:51.535Z,25.44
2023-07-04T07:49:54.557Z,25.45
2023-07-04T07:51:57.443Z,25.48
2023-07-04T07:54:01.981Z,25.48
2023-07-04T07:56:05.766Z,25.52
2023-07-04T07:58:09.365Z,25.54
2023-07-04T08:00:13.621Z,25.58
2023-07-04T08:02:18.002Z,25.60
2023-07-04T08:04:20.998Z,25.62
2023-07-04T08:06:26.346Z,25.61
2023-07-04T08:08:29.159Z,25.61
2023-07-04T08:10:36.993Z,25.63
2023-07-04T08:12:39.889Z,25.63
2023-07-04T08:14:43.018Z,25.64
2023-07-04T08:16:48.213Z,25.66
2023-07-04T08:18:52.592Z,25.69
2023-07-04T08:20:59.274Z,25.73
2023-07-04T08:23:02.267Z,25.73
2023-07-04T08:25:06.585Z,25.72
2023-07-04T08:27:09.521Z,25.67
2023-07-04T08:29:13.109Z,25.68
2023-07-04T08:31:20.151Z,25.66
2023-07-04T08:33:22.907Z,25.65
2023-07-04T08:35:27.358Z,25.64
2023-07-04T08:37:30.186Z,25.62
2023-07-04T08:39:33.060Z,25.58
2023-07-04T08:41:44.708Z,25.55
2023-07-04T08:43:55.143Z,25.53
2023-07-04T08:45:58.887Z,25.53
2023-07-04T08:48:01.873Z,25.51
2023-07-04T08:50:07.467Z,25.50
2023-07-04T08:52:17.982Z,25.49
2023-07-04T08:54:20.924Z,25.49
2023-07-04T08:56:34.703Z,25.48
2023-07-04T08:58:42.905Z,25.46
2023-07-04T09:00:46.925Z,25.45
2023-07-04T09:02:55.664Z,25.46
2023-07-04T09:05:09.064Z,25.45
2023-07-04T09:07:26.060Z,25.45
2023-07-04T09:09:47.743Z,25.42
2023-07-04T09:11:51.951Z,25.39
2023-07-04T09:13:59.839Z,25.35
2023-07-04T09:16:07.452Z,25.38
2023-07-04T09:18:22.478Z,25.38
2023-07-04T09:20:26.477Z,25.37
2023-07-04T09:22:30.984Z,25.35
2023-07-04T09:24:35.406Z,25.36
2023-07-04T09:26:43.825Z,25.36
2023-07-04T09:28:48.605Z,25.36
2023-07-04T09:30:52.083Z,25.36
2023-07-04T09:32:56.214Z,25.36
2023-07-04T09:35:04.484Z,25.37
2023-07-04T09:37:13.419Z,25.40
2023-07-04T09:39:17.805Z,25.40
2023-07-04T09:41:21.247Z,25.44
2023-07-04T09:43:30.184Z,25.46
2023-07-04T09:45:33.666Z,25.45
2023-07-04T09:47:37.724Z,25.44
2023-07-04T09:49:41.615Z,25.45
2023-07-04T09:51:44.560Z,25.44
2023-07-04T09:53:47.642Z,25.45
2023-07-04T09:56:02.375Z,25.45
2023-07-04T09:58:19.370Z,25.43
2023-07-04T10:00:24.461Z,25.43
2023-07-04T10:02:35.394Z,25.43
2023-07-04T10:04:44.482Z,25.45
2023-07-04T10:06:49.186Z,25.45
2023-07-04T10:08:55.274Z,25.46
2023-07-04T10:11:01.070Z,25.46
2023-07-04T10:13:04.326Z,25.46
2023-07-04T10:15:08.622Z,25.46
2023-07-04T10:17:17.443Z,25.45
2023-07-04T10:19:22.288Z,25.44
2023-07-04T10:21:25.074Z,25.45
2023-07-04T10:23:30.478Z,25.43
2023-07-04T10:25:34.928Z,25.44
2023-07-04T10:27:41.493Z,25.44
2023-07-04T10:29:50.687Z,25.45
2023-07-04T10:31:53.878Z,25.49
2023-07-04T10:34:01.214Z,25.50
2023-07-04T10:36:05.793Z,25.52
2023-07-04T10:38:16.821Z,25.54
2023-07-04T10:40:21.699Z,25.55
2023-07-04T10:42:28.921Z,25.57
2023-07-04T10:44:37.337Z,25.60
2023-07-04T10:46:50.682Z,25.59
2023-07-04T10:48:59.870Z,25.62
2023-07-04T10:51:10.792Z,25.62
2023-07-04T10:53:15.052Z,25.63
2023-07-04T10:55:22.714Z,25.64
2023-07-04T10:57:35.110Z,25.66
2023-07-04T10:59:45.928Z,25.69
2023-07-04T11:01:52.828Z,25.69
2023-07-04T11:04:01.007Z,25.70
2023-07-04T11:06:09.510Z,25.75
2023-07-04T11:08:17.507Z,25.76
2023-07-04T11:10:25.554Z,25.75
2023-07-04T11:12:34.336Z,25.75
2023-07-04T11:14:42.189Z,25.77
2023-07-04T11:16:46.385Z,25.78
2023-07-04T11:19:04.898Z,25.81
2023-07-04T11:21:11.978Z,25.79
2023-07-04T11:23:17.916Z,25.81
2023-07-04T11:25:31.690Z,25.78
2023-07-04T11:27:34.861Z,25.80
2023-07-04T11:29:51.941Z,25.82
2023-07-04T11:32:19.968Z,25.83
2023-07-04T11:34:22.942Z,25.85
2023-07-04T11:36:29.167Z,25.88
2023-07-04T11:38:33.092Z,25.89
2023-07-04T11:40:46.314Z,25.89
2023-07-04T11:42:53.459Z,25.90
2023-07-04T11:45:03.367Z,25.90
2023-07-04T11:47:11.407Z,25.92
2023-07-04T11:49:20.682Z,25.94
2023-07-04T11:51:26.431Z,25.95
2023-07-04T11:53:40.431Z,25.98
2023-07-04T11:55:44.179Z,25.99
2023-07-04T11:58:02.479Z,26.01
2023-07-04T12:00:22.950Z,26.01
2023-07-04T12:02:28.918Z,26.01
2023-07-04T12:04:47.908Z,26.02
2023-07-04T12:07:04.164Z,26.05
2023-07-04T12:09:12.979Z,26.06
2023-07-04T12:11:22.830Z,26.06
2023-07-04T12:13:29.077Z,26.08
2023-07-04T12:15:35.263Z,26.08
2023-07-04T12:17:40.624Z,26.11
2023-07-04T12:19:43.596Z,26.11
2023-07-04T12:21:49.473Z,26.10
2023-07-04T12:23:52.425Z,26.10
2023-07-04T12:25:57.964Z,26.11
2023-07-04T12:28:04.953Z,26.13
2023-07-04T12:30:11.498Z,26.15
2023-07-04T12:32:22.629Z,26.13
2023-07-04T12:34:29.812Z,26.13
2023-07-04T12:36:38.755Z,26.15
2023-07-04T12:38:45.675Z,26.17
2023-07-04T12:40:49.216Z,26.17
2023-07-04T12:42:54.249Z,26.17
2023-07-04T12:44:58.085Z,26.17
2023-07-04T12:51:19.005Z,26.17
2023-07-04T12:53:22.492Z,26.19
2023-07-04T12:55:31.155Z,26.21
2023-07-04T12:57:35.128Z,26.23
2023-07-04T12:59:39.988Z,26.22
2023-07-04T13:01:44.860Z,26.24
2023-07-04T13:03:48.089Z,26.27
2023-07-04T13:05:54.344Z,26.29
2023-07-04T13:07:57.536Z,26.30
2023-07-04T13:10:01.701Z,26.32
2023-07-04T13:12:04.837Z,26.33
2023-07-04T13:14:10.374Z,26.34
2023-07-04T13:16:16.854Z,26.32
2023-07-04T13:18:33.498Z,26.32
2023-07-04T13:20:39.574Z,26.31
2023-07-04T13:27:14.186Z,26.33
2023-07-04T13:33:38.700Z,26.34
2023-07-04T13:35:42.288Z,26.35
2023-07-04T13:39:54.410Z,26.37
2023-07-04T13:41:59.303Z,26.40
2023-07-04T13:46:08.258Z,26.43
2023-07-04T13:48:11.562Z,26.43
2023-07-04T13:50:15.840Z,26.43
2023-07-04T13:52:20.490Z,26.42
2023-07-04T13:54:24.699Z,26.43
2023-07-04T13:56:28.169Z,26.44
2023-07-04T13:58:30.982Z,26.45
2023-07-04T14:00:55.644Z,26.47
2023-07-04T14:07:09.351Z,26.49
2023-07-04T14:09:12.483Z,26.49
2023-07-04T14:11:18.783Z,26.49
2023-07-04T14:13:21.817Z,26.50
2023-07-04T14:17:34.110Z,26.52
2023-07-04T14:19:59.259Z,26.53
2023-07-04T14:22:02.482Z,26.53
2023-07-04T14:24:06.353Z,26.54
2023-07-04T14:26:19.441Z,26.55
2023-07-04T14:28:24.824Z,26.56
2023-07-04T14:30:27.978Z,26.58
2023-07-04T14:32:31.584Z,26.56
2023-07-04T14:34:34.604Z,26.56
2023-07-04T14:36:37.712Z,26.56
2023-07-04T14:38:40.857Z,26.57
2023-07-04T14:42:51.888Z,26.57
2023-07-04T14:44:55.090Z,26.56
2023-07-04T14:46:58.023Z,26.57
2023-07-04T14:49:01.560Z,26.59
2023-07-04T14:51:05.429Z,26.62
2023-07-04T14:53:08.386Z,26.64
2023-07-04T14:55:12.808Z,26.68
2023-07-04T14:57:15.984Z,26.69
2023-07-04T14:59:20.234Z,26.69
2023-07-04T15:01:24.206Z,26.68
2023-07-04T15:03:28.661Z,26.69
2023-07-04T15:05:34.374Z,26.71
2023-07-04T15:07:37.400Z,26.70
2023-07-04T15:09:40.220Z,26.69
2023-07-04T15:11:43.176Z,26.71
2023-07-04T15:13:46.016Z,26.73
2023-07-04T15:15:50.839Z,26.73
2023-07-04T15:17:54.435Z,26.75
2023-07-04T15:19:57.699Z,26.75
2023-07-04T15:22:00.684Z,26.75
2023-07-04T15:24:03.834Z,26.74
2023-07-04T15:26:25.213Z,26.73
2023-07-04T15:28:29.580Z,26.75
2023-07-04T15:30:32.624Z,26.73
2023-07-04T15:32:36.975Z,26.72
2023-07-04T15:34:41.042Z,26.72
2023-07-04T15:36:43.991Z,26.70
2023-07-04T15:38:47.406Z,26.72
2023-07-04T15:40:52.568Z,26.73
2023-07-04T15:42:56.511Z,26.72
2023-07-04T15:45:00.466Z,26.71
2023-07-04T15:47:03.488Z,26.72
2023-07-04T15:49:07.946Z,26.70
2023-07-04T15:51:13.121Z,26.70
2023-07-04T15:53:15.990Z,26.72
2023-07-04T15:55:18.961Z,26.73
2023-07-04T15:57:21.765Z,26.73
2023-07-04T15:59:24.685Z,26.74
2023-07-04T16:01:27.915Z,26.73
2023-07-04T16:03:34.071Z,26.74
2023-07-04T16:05:43.701Z,26.75
2023-07-04T16:07:46.672Z,26.77
2023-07-04T16:09:51.090Z,26.77
2023-07-04T16:11:55.393Z,26.76
2023-07-04T16:13:59.493Z,26.76
2023-07-04T16:16:02.844Z,26.75
2023-07-04T16:18:07.245Z,26.74
2023-07-04T16:20:11.906Z,26.75
2023-07-04T16:22:17.778Z,26.76
2023-07-04T16:24:21.242Z,26.76
2023-07-04T16:26:26.688Z,26.76
2023-07-04T16:28:30.112Z,26.77
2023-07-04T16:30:33.156Z,26.76
2023-07-04T16:32:36.823Z,26.76
2023-07-04T16:34:40.934Z,26.76
2023-07-04T16:36:44.015Z,26.76
2023-07-04T16:38:52.004Z,26.77
2023-07-04T16:40:56.618Z,26.77
2023-07-04T16:43:01.702Z,26.76
2023-07-04T16:45:04.867Z,26.78
2023-07-04T16:47:08.446Z,26.79
2023-07-04T16:49:11.429Z,26.79
2023-07-04T16:51:16.732Z,26.80
2023-07-04T16:53:19.757Z,26.79
2023-07-04T16:55:25.048Z,26.79
2023-07-04T16:57:29.160Z,26.80
2023-07-04T16:59:32.059Z,26.81
2023-07-04T17:01:35.135Z,26.81
2023-07-04T17:03:38.742Z,26.81
2023-07-04T17:05:41.915Z,26.80
2023-07-04T17:07:45.299Z,26.81
2023-07-04T17:09:48.648Z,26.82
2023-07-04T17:11:53.640Z,26.81
2023-07-04T17:13:57.059Z,26.81
2023-07-04T17:16:01.247Z,26.81
2023-07-04T17:18:05.188Z,26.80
2023-07-04T17:20:10.466Z,26.80
2023-07-04T17:22:14.695Z,26.81
2023-07-04T17:24:19.435Z,26.81
2023-07-04T17:26:23.225Z,26.81
2023-07-04T17:28:28.673Z,26.81
2023-07-04T17:30:32.083Z,26.80
2023-07-04T17:32:35.225Z,26.83
2023-07-04T17:34:39.122Z,26.84
2023-07-04T17:36:42.089Z,26.85
2023-07-04T17:38:47.228Z,26.84
2023-07-04T17:40:50.744Z,26.86
2023-07-04T17:42:54.075Z,26.86
2023-07-04T17:45:00.766Z,26.87
2023-07-04T17:47:03.992Z,26.89
2023-07-04T17:49:07.776Z,26.89
2023-07-04T17:51:13.758Z,26.91
2023-07-04T17:53:17.997Z,26.93
2023-07-04T17:55:22.026Z,26.94
2023-07-04T17:57:28.121Z,26.96
2023-07-04T17:59:32.447Z,26.96
2023-07-04T18:01:36.818Z,26.96
2023-07-04T18:03:42.400Z,26.98
2023-07-04T18:18:07.244Z,27.04
2023-07-04T18:20:11.521Z,27.07
2023-07-04T18:22:14.823Z,27.11
2023-07-04T18:24:18.204Z,27.11
2023-07-04T18:26:22.879Z,27.12
2023-07-04T18:28:26.961Z,27.10
2023-07-04T18:30:30.795Z,27.10
2023-07-04T18:32:34.008Z,27.09
2023-07-04T18:34:39.004Z,27.09
2023-07-04T18:36:42.284Z,27.09
2023-07-04T18:38:45.472Z,27.07
2023-07-04T18:40:53.072Z,27.06
2023-07-04T18:42:56.284Z,27.05
2023-07-04T18:45:00.835Z,27.04
2023-07-04T18:47:03.931Z,27.02
2023-07-04T18:49:08.502Z,27.00
2023-07-04T18:51:15.377Z,26.97
2023-07-04T18:53:18.572Z,26.95
2023-07-04T18:55:21.708Z,26.93
2023-07-04T18:57:25.258Z,26.91
2023-07-04T18:59:28.738Z,26.90
2023-07-04T19:01:34.307Z,26.88
2023-07-04T19:03:37.295Z,26.87
2023-07-04T19:05:41.864Z,26.85
2023-07-04T19:07:47.147Z,26.82
2023-07-04T19:09:50.766Z,26.82
2023-07-04T19:11:54.306Z,26.82
2023-07-04T19:14:08.703Z,26.80
2023-07-04T19:16:11.845Z,26.81
2023-07-04T19:18:15.571Z,26.80
2023-07-04T19:20:18.629Z,26.79
2023-07-04T19:22:22.878Z,26.79
2023-07-04T19:24:29.999Z,26.77
2023-07-04T19:26:38.156Z,26.76
2023-07-04T19:28:41.636Z,26.77
2023-07-04T19:30:45.108Z,26.75
2023-07-04T19:32:48.716Z,26.74
2023-07-04T19:34:53.227Z,26.74
2023-07-04T19:36:58.754Z,26.73
2023-07-04T19:39:03.954Z,26.71
2023-07-04T19:41:08.464Z,26.69
2023-07-04T19:43:12.739Z,26.68
2023-07-04T19:45:16.222Z,26.68
2023-07-04T19:47:19.587Z,26.67
2023-07-04T19:49:23.243Z,26.69
2023-07-04T19:51:27.378Z,26.68
2023-07-04T19:53:30.473Z,26.67
2023-07-04T19:55:38.354Z,26.66
2023-07-04T19:57:43.569Z,26.63
2023-07-04T19:59:48.443Z,26.65
2023-07-04T20:01:51.556Z,26.64
2023-07-04T20:03:56.070Z,26.62
2023-07-04T20:05:59.866Z,26.61
2023-07-04T20:08:02.885Z,26.60
2023-07-04T20:10:07.220Z,26.59
2023-07-04T20:12:12.249Z,26.57
2023-07-04T20:14:16.534Z,26.57
2023-07-04T20:16:22.811Z,26.57
2023-07-04T20:18:27.423Z,26.56
2023-07-04T20:20:31.691Z,26.53
2023-07-04T20:22:35.688Z,26.53
2023-07-04T20:24:39.006Z,26.51
2023-07-04T20:26:41.857Z,26.52
2023-07-04T20:28:45.549Z,26.50
2023-07-04T20:30:55.303Z,26.50
2023-07-04T20:32:59.657Z,26.50
2023-07-04T20:35:02.853Z,26.49
2023-07-04T20:37:07.650Z,26.48
2023-07-04T20:39:10.696Z,26.49
2023-07-04T20:41:15.383Z,26.48
2023-07-04T20:43:20.120Z,26.48
2023-07-04T20:45:24.240Z,26.47
2023-07-04T20:47:31.451Z,26.48
2023-07-04T20:49:34.374Z,26.47
2023-07-04T20:51:37.424Z,26.48
2023-07-04T20:53:41.748Z,26.47
2023-07-04T20:55:46.531Z,26.44
2023-07-04T20:57:51.130Z,26.46
2023-07-04T20:59:55.169Z,26.45
2023-07-04T21:02:00.045Z,26.44
2023-07-04T21:04:07.010Z,26.45
2023-07-04T21:06:10.348Z,26.45
2023-07-04T21:08:14.360Z,26.43
2023-07-04T21:10:21.250Z,26.43
2023-07-04T21:12:24.082Z,26.42
2023-07-04T21:14:27.215Z,26.41
2023-07-04T21:16:31.189Z,26.41
2023-07-04T21:18:36.482Z,26.39
2023-07-04T21:20:41.636Z,26.40
2023-07-04T21:22:45.550Z,26.39
2023-07-04T21:24:49.675Z,26.38
2023-07-04T21:26:52.639Z,26.37
2023-07-04T21:28:56.213Z,26.35
2023-07-04T21:31:04.682Z,26.34
2023-07-04T21:33:08.302Z,26.34
2023-07-04T21:35:11.273Z,26.32
2023-07-04T21:37:17.166Z,26.30
2023-07-04T21:39:21.340Z,26.29
2023-07-04T21:41:25.394Z,26.29
2023-07-04T21:43:28.496Z,26.29
2023-07-04T21:45:31.445Z,26.28
2023-07-04T21:47:34.455Z,26.28
2023-07-04T21:49:37.655Z,26.27
2023-07-04T21:51:41.400Z,26.27
2023-07-04T21:53:45.819Z,26.26
2023-07-04T21:55:50.558Z,26.28
2023-07-04T21:57:55.728Z,26.27
2023-07-04T21:59:58.561Z,26.27
2023-07-04T22:02:01.402Z,26.24
2023-07-04T22:04:04.837Z,26.25
2023-07-04T22:06:09.808Z,26.24
2023-07-04T22:08:14.838Z,26.26
2023-07-04T22:10:19.370Z,26.24
2023-07-04T22:12:22.336Z,26.22
2023-07-04T22:14:37.016Z,26.21
2023-07-04T22:16:40.867Z,26.21
2023-07-04T22:18:43.897Z,26.20
2023-07-04T22:20:47.067Z,26.21
2023-07-04T22:22:49.816Z,26.21
2023-07-04T22:24:53.178Z,26.21
2023-07-04T22:26:57.631Z,26.22
2023-07-04T22:29:00.446Z,26.23
2023-07-04T22:31:05.519Z,26.23
2023-07-04T22:33:08.788Z,26.24
2023-07-04T22:35:11.637Z,26.26
2023-07-04T22:37:14.444Z,26.26
2023-07-04T22:39:17.446Z,26.27
2023-07-04T22:41:20.280Z,26.28
2023-07-04T22:43:24.564Z,26.27
2023-07-04T22:45:29.108Z,26.28
2023-07-04T22:47:32.035Z,26.27
2023-07-04T22:49:34.895Z,26.28
2023-07-04T22:51:37.809Z,26.29
2023-07-04T22:53:40.595Z,26.28
2023-07-04T22:55:45.122Z,26.28
2023-07-04T22:57:48.294Z,26.28
2023-07-04T22:59:52.487Z,26.28
2023-07-04T23:01:55.557Z,26.27
2023-07-04T23:03:58.506Z,26.26
2023-07-04T23:06:01.495Z,26.27
2023-07-04T23:08:04.522Z,26.27
2023-07-04T23:10:08.188Z,26.27
2023-07-04T23:12:11.323Z,26.26
2023-07-04T23:14:14.217Z,26.24
2023-07-04T23:16:20.687Z,26.24
2023-07-04T23:18:23.697Z,26.23
2023-07-04T23:20:28.704Z,26.23
2023-07-04T23:22:31.576Z,26.22
2023-07-04T23:24:34.499Z,26.21
2023-07-04T23:26:37.507Z,26.19
2023-07-04T23:28:40.570Z,26.20
2023-07-04T23:30:43.505Z,26.21
2023-07-04T23:32:47.708Z,26.19
2023-07-04T23:34:50.602Z,26.19
2023-07-04T23:36:53.517Z,26.19
2023-07-04T23:38:56.477Z,26.18
2023-07-04T23:40:59.695Z,26.18
2023-07-04T23:43:02.575Z,26.17
2023-07-04T23:45:06.229Z,26.17
2023-07-04T23:47:09.153Z,26.17
2023-07-04T23:49:13.181Z,26.16
2023-07-04T23:51:16.297Z,26.15
2023-07-04T23:53:19.760Z,26.15
2023-07-04T23:55:21.721Z,26.15
2023-07-04T23:57:24.496Z,26.15
2023-07-04T23:59:27.351Z,26.13
